createdAt,value
2022-08-28T00:02:00.233Z,95540.06
2022-08-28T00:07:02.966Z,95544.84
2022-08-28T00:12:06.145Z,95536.94
2022-08-28T00:17:08.961Z,95545.63
2022-08-28T00:22:11.741Z,95547.56
2022-08-28T00:27:32.279Z,95545.47
2022-08-28T00:32:36.178Z,95542.44
2022-08-28T00:37:40.102Z,95535.88
2022-08-28T00:42:42.957Z,95546.94
2022-08-28T00:47:45.945Z,95545.81
2022-08-28T00:52:48.758Z,95546.59
2022-08-28T00:57:51.729Z,95543.06
2022-08-28T01:02:54.628Z,95547.84
2022-08-28T01:07:58.738Z,95548.94
2022-08-28T01:13:01.504Z,95544.19
2022-08-28T01:18:08.022Z,95536.50
2022-08-28T01:23:11.249Z,95532.03
2022-08-28T01:28:14.434Z,95535.53
2022-08-28T01:33:19.394Z,95531.75
2022-08-28T01:38:30.725Z,95528.69
2022-08-28T01:43:33.648Z,95536.38
2022-08-28T01:48:37.074Z,95535.56
2022-08-28T01:53:39.954Z,95536.19
2022-08-28T01:58:42.651Z,95529.00
2022-08-28T02:03:45.580Z,95536.63
2022-08-28T02:08:49.995Z,95527.22
2022-08-28T02:13:52.805Z,95528.50
2022-08-28T02:18:57.161Z,95529.63
2022-08-28T02:23:59.966Z,95526.44
2022-08-28T02:29:02.689Z,95532.50
2022-08-28T02:34:06.075Z,95534.72
2022-08-28T02:39:08.962Z,95529.13
2022-08-28T02:44:11.689Z,95543.66
2022-08-28T02:49:14.484Z,95528.34
2022-08-28T02:54:18.474Z,95532.66
2022-08-28T02:59:21.399Z,95535.97
2022-08-28T03:04:24.469Z,95542.38
2022-08-28T03:09:27.197Z,95544.13
2022-08-28T03:14:30.941Z,95535.97
2022-08-28T03:19:33.757Z,95535.97
2022-08-28T03:24:37.530Z,95540.16
2022-08-28T03:29:40.375Z,95533.13
2022-08-28T03:34:43.264Z,95540.78
2022-08-28T03:39:46.132Z,95544.63
2022-08-28T03:44:49.399Z,95544.25
2022-08-28T03:49:52.783Z,95552.75
2022-08-28T03:54:55.974Z,95545.88
2022-08-28T03:59:58.813Z,95552.25
2022-08-28T04:05:01.671Z,95545.41
2022-08-28T04:10:04.561Z,95550.19
2022-08-28T04:15:07.355Z,95558.19
2022-08-28T04:20:10.923Z,95560.44
2022-08-28T04:25:13.812Z,95560.13
2022-08-28T04:30:16.586Z,95566.00
2022-08-28T04:35:19.720Z,95565.53
2022-08-28T04:40:22.696Z,95566.81
2022-08-28T04:45:25.938Z,95572.09
2022-08-28T04:50:28.677Z,95561.72
2022-08-28T04:55:53.541Z,95551.03
2022-08-28T05:00:54.555Z,95568.00
2022-08-28T05:05:57.453Z,95568.00
2022-08-28T05:11:00.626Z,95583.97
2022-08-28T05:16:03.904Z,95576.28
2022-08-28T05:21:06.809Z,95579.97
2022-08-28T05:26:09.524Z,95588.13
2022-08-28T05:31:12.344Z,95592.25
2022-08-28T05:36:15.306Z,95595.28
2022-08-28T05:41:18.160Z,95596.72
2022-08-28T05:46:20.889Z,95597.06
2022-08-28T05:51:23.968Z,95601.38
2022-08-28T05:56:29.506Z,95602.50
2022-08-28T06:01:32.289Z,95601.41
2022-08-28T06:06:35.594Z,95601.69
2022-08-28T06:11:39.037Z,95601.88
2022-08-28T06:16:47.644Z,95608.25
2022-08-28T06:21:51.762Z,95598.50
2022-08-28T06:26:56.559Z,95608.88
2022-08-28T06:32:01.596Z,95606.97
2022-08-28T06:37:04.581Z,95606.47
2022-08-28T06:42:07.332Z,95613.69
2022-08-28T06:47:11.593Z,95609.84
2022-08-28T06:52:14.269Z,95612.59
2022-08-28T06:57:17.129Z,95622.31
2022-08-28T07:02:20.169Z,95622.63
2022-08-28T07:07:32.400Z,95624.31
2022-08-28T07:12:35.838Z,95625.31
2022-08-28T07:17:38.598Z,95620.88
2022-08-28T07:22:42.137Z,95624.56
2022-08-28T07:27:45.223Z,95629.22
2022-08-28T07:32:49.946Z,95629.78
2022-08-28T07:37:52.818Z,95643.09
2022-08-28T07:43:13.129Z,95657.81
2022-08-28T07:48:16.792Z,95674.00
2022-08-28T07:53:25.549Z,95673.31
2022-08-28T07:58:28.423Z,95668.34
2022-08-28T08:03:32.698Z,95677.13
2022-08-28T08:08:35.585Z,95680.56
2022-08-28T08:13:38.280Z,95694.47
2022-08-28T08:18:41.941Z,95695.31
2022-08-28T08:23:44.645Z,95698.19
2022-08-28T08:28:47.354Z,95707.25
2022-08-28T08:33:50.180Z,95706.13
2022-08-28T08:38:59.147Z,95703.78
2022-08-28T08:44:03.021Z,95707.44
2022-08-28T08:49:06.030Z,95720.88
2022-08-28T08:54:08.755Z,95726.31
2022-08-28T08:59:11.810Z,95724.56
2022-08-28T09:04:15.785Z,95725.56
2022-08-28T09:09:18.753Z,95733.19
2022-08-28T09:14:21.599Z,95737.69
2022-08-28T09:19:29.743Z,95730.66
2022-08-28T09:24:33.086Z,95743.31
2022-08-28T09:29:36.215Z,95735.16
2022-08-28T09:34:39.261Z,95740.91
2022-08-28T09:39:45.557Z,95742.53
2022-08-28T09:44:51.969Z,95746.53
2022-08-28T09:49:55.003Z,95752.13
2022-08-28T09:54:57.745Z,95764.88
2022-08-28T10:00:00.634Z,95757.84
2022-08-28T10:05:03.477Z,95762.28
2022-08-28T10:10:07.611Z,95767.56
2022-08-28T10:15:10.425Z,95768.88
2022-08-28T10:20:13.197Z,95776.06
2022-08-28T10:25:16.229Z,95781.72
2022-08-28T10:30:19.380Z,95775.31
2022-08-28T10:35:22.198Z,95780.59
2022-08-28T10:40:25.008Z,95781.13
2022-08-28T10:45:27.810Z,95780.97
2022-08-28T10:50:30.693Z,95776.00
2022-08-28T10:55:34.990Z,95772.00
2022-08-28T11:00:39.362Z,95774.25
2022-08-28T11:05:52.457Z,95776.16
2022-08-28T11:10:56.376Z,95779.66
2022-08-28T11:15:59.253Z,95774.53
2022-08-28T11:21:02.041Z,95767.63
2022-08-28T11:26:04.775Z,95764.72
2022-08-28T11:31:07.728Z,95765.31
2022-08-28T11:36:10.613Z,95767.13
2022-08-28T11:41:14.518Z,95760.75
2022-08-28T11:46:19.950Z,95760.69
2022-08-28T11:51:26.410Z,95756.00
2022-08-28T11:56:31.874Z,95759.19
2022-08-28T12:01:35.468Z,95758.25
2022-08-28T12:06:39.152Z,95763.31
2022-08-28T12:11:41.934Z,95762.75
2022-08-28T12:16:44.851Z,95753.94
2022-08-28T12:21:47.748Z,95750.06
2022-08-28T12:26:51.258Z,95759.56
2022-08-28T12:32:12.650Z,95755.16
2022-08-28T12:37:15.367Z,95742.72
2022-08-28T12:42:18.129Z,95737.38
2022-08-28T12:47:22.922Z,95743.72
2022-08-28T12:52:25.692Z,95738.91
2022-08-28T12:57:28.687Z,95740.84
2022-08-28T13:02:33.712Z,95735.59
2022-08-28T13:07:37.139Z,95742.34
2022-08-28T13:12:56.024Z,95742.81
2022-08-28T13:18:00.985Z,95738.47
2022-08-28T13:23:03.784Z,95747.19
2022-08-28T13:28:06.506Z,95741.66
2022-08-28T13:33:10.411Z,95737.94
2022-08-28T13:38:13.471Z,95739.00
2022-08-28T13:43:16.398Z,95742.88
2022-08-28T13:48:19.271Z,95739.31
2022-08-28T13:53:22.688Z,95741.00
2022-08-28T13:58:26.458Z,95730.66
2022-08-28T14:03:39.226Z,95737.53
2022-08-28T14:08:43.390Z,95736.63
2022-08-28T14:13:55.111Z,95741.41
2022-08-28T14:19:04.153Z,95735.41
2022-08-28T14:24:07.122Z,95743.56
2022-08-28T14:29:09.928Z,95741.31
2022-08-28T14:34:12.774Z,95739.19
2022-08-28T14:39:15.642Z,95731.13
2022-08-28T14:44:18.862Z,95723.63
2022-08-28T14:49:22.019Z,95733.00
2022-08-28T14:54:24.926Z,95731.66
2022-08-28T14:59:28.916Z,95735.25
2022-08-28T15:04:34.775Z,95744.16
2022-08-28T15:09:37.815Z,95741.09
2022-08-28T15:14:40.971Z,95743.41
2022-08-28T15:20:00.427Z,95740.41
2022-08-28T15:25:03.314Z,95739.81
2022-08-28T15:30:06.029Z,95731.34
2022-08-28T15:35:08.863Z,95734.31
2022-08-28T15:40:29.538Z,95729.97
2022-08-28T15:45:32.693Z,95721.53
2022-08-28T15:50:36.101Z,95736.81
2022-08-28T15:55:39.554Z,95726.81
2022-08-28T16:00:42.906Z,95725.53
2022-08-28T16:05:46.221Z,95721.28
2022-08-28T16:10:49.988Z,95717.16
2022-08-28T16:15:53.128Z,95717.81
2022-08-28T16:20:56.021Z,95713.44
2022-08-28T16:26:16.206Z,95716.81
2022-08-28T16:31:19.693Z,95713.13
2022-08-28T16:36:25.253Z,95709.94
2022-08-28T16:41:28.466Z,95713.94
2022-08-28T16:46:32.718Z,95714.47
2022-08-28T16:51:35.603Z,95717.13
2022-08-28T16:56:39.529Z,95722.97
2022-08-28T17:01:46.168Z,95732.44
2022-08-28T17:06:59.673Z,95734.91
2022-08-28T17:12:03.934Z,95746.00
2022-08-28T17:17:08.358Z,95739.00
2022-08-28T17:22:28.902Z,95746.69
2022-08-28T17:27:33.326Z,95748.28
2022-08-28T17:32:45.825Z,95749.19
2022-08-28T17:37:50.786Z,95760.78
2022-08-28T17:42:54.003Z,95763.34
2022-08-28T17:47:56.868Z,95770.91
2022-08-28T17:53:00.117Z,95772.19
2022-08-28T17:58:03.346Z,95764.06
2022-08-28T18:03:07.578Z,95772.38
2022-08-28T18:08:10.775Z,95772.72
2022-08-28T18:13:15.181Z,95772.88
2022-08-28T18:18:18.092Z,95774.63
2022-08-28T18:23:22.932Z,95783.47
2022-08-28T18:28:26.819Z,95793.44
2022-08-28T18:33:29.695Z,95803.50
2022-08-28T18:38:35.169Z,95811.81
2022-08-28T18:43:38.499Z,95823.84
2022-08-28T18:48:41.852Z,95824.47
2022-08-28T18:53:45.146Z,95827.81
2022-08-28T18:58:48.903Z,95842.06
2022-08-28T19:03:59.104Z,95839.19
2022-08-28T19:09:32.233Z,95846.22
2022-08-28T19:14:36.025Z,95842.72
2022-08-28T19:19:38.871Z,95848.63
2022-08-28T19:24:42.289Z,95846.00
2022-08-28T19:29:45.488Z,95854.00
2022-08-28T19:34:49.349Z,95857.19
2022-08-28T19:39:56.396Z,95849.63
2022-08-28T19:45:00.923Z,95866.22
2022-08-28T19:50:05.239Z,95864.09
2022-08-28T19:55:08.461Z,95871.44
2022-08-28T20:00:11.656Z,95882.13
2022-08-28T20:05:14.712Z,95882.47
2022-08-28T20:10:17.621Z,95881.34
2022-08-28T20:15:20.873Z,95892.53
2022-08-28T20:20:29.769Z,95884.50
2022-08-28T20:25:34.918Z,95888.00
2022-08-28T20:30:39.408Z,95885.53
2022-08-28T20:35:42.572Z,95882.28
2022-08-28T20:40:46.717Z,95887.53
2022-08-28T20:45:49.809Z,95880.31
2022-08-28T20:50:55.748Z,95880.28
2022-08-28T20:55:58.761Z,95872.72
2022-08-28T21:01:01.939Z,95886.41
2022-08-28T21:06:04.956Z,95884.44
2022-08-28T21:11:30.968Z,95885.38
2022-08-28T21:16:35.084Z,95893.44
2022-08-28T21:21:37.982Z,95890.53
2022-08-28T21:26:42.707Z,95895.59
2022-08-28T21:31:48.294Z,95903.84
2022-08-28T21:36:51.050Z,95901.44
2022-08-28T21:41:53.765Z,95899.44
2022-08-28T21:46:56.493Z,95904.38
2022-08-28T21:52:01.370Z,95905.81
2022-08-28T21:57:04.453Z,95905.09
2022-08-28T22:02:11.217Z,95906.00
2022-08-28T22:07:14.358Z,95906.91
2022-08-28T22:12:17.519Z,95910.84
2022-08-28T22:17:20.341Z,95915.56
2022-08-28T22:22:41.298Z,95907.44
2022-08-28T22:27:44.033Z,95904.72
2022-08-28T22:32:46.923Z,95905.84
2022-08-28T22:37:49.871Z,95910.28
2022-08-28T22:42:52.626Z,95915.78
2022-08-28T22:47:55.388Z,95918.28
2022-08-28T22:52:58.339Z,95917.00
2022-08-28T22:58:01.076Z,95909.38
2022-08-28T23:03:04.170Z,95915.72
2022-08-28T23:08:06.938Z,95920.41
2022-08-28T23:13:09.718Z,95910.38
2022-08-28T23:18:17.443Z,95904.63
2022-08-28T23:23:21.650Z,95914.06
2022-08-28T23:28:24.469Z,95920.28
2022-08-28T23:33:27.192Z,95916.78
2022-08-28T23:38:30.232Z,95911.34
2022-08-28T23:43:33.009Z,95909.53
2022-08-28T23:48:35.730Z,95913.16
2022-08-28T23:53:38.567Z,95904.53
2022-08-28T23:58:43.203Z,95906.56
